createdAt,value
2023-04-09T00:00:52.715Z,1010.1
2023-04-09T00:01:53.708Z,1010
2023-04-09T00:02:54.773Z,1010
2023-04-09T00:03:55.756Z,1010
2023-04-09T00:04:56.734Z,1010
2023-04-09T00:05:57.708Z,1010.1
2023-04-09T00:06:58.722Z,1010
2023-04-09T00:07:59.722Z,1010
2023-04-09T00:09:00.699Z,1010
2023-04-09T00:10:01.786Z,1010
2023-04-09T00:11:02.752Z,1010
2023-04-09T00:12:03.698Z,1010.1
2023-04-09T00:13:04.709Z,1010.1
2023-04-09T00:14:05.779Z,1010.1
2023-04-09T00:15:07.496Z,1010.1
2023-04-09T00:16:07.767Z,1010.2
2023-04-09T00:17:08.721Z,1010.1
2023-04-09T00:18:09.688Z,1010.1
2023-04-09T00:19:10.839Z,1010.2
2023-04-09T00:20:11.726Z,1010.1
2023-04-09T00:21:12.691Z,1010.1
2023-04-09T00:22:13.731Z,1010.2
2023-04-09T00:23:14.702Z,1010.2
2023-04-09T00:24:15.723Z,1010.2
2023-04-09T00:25:17.213Z,1010.1
2023-04-09T00:26:18.898Z,1010.1
2023-04-09T00:27:19.665Z,1010.2
2023-04-09T00:28:20.721Z,1010.1
2023-04-09T00:29:21.761Z,1010.2
2023-04-09T00:30:22.743Z,1010.1
2023-04-09T00:31:23.797Z,1010.1
2023-04-09T00:32:24.748Z,1010.1
2023-04-09T00:33:25.768Z,1010.1
2023-04-09T00:34:27.103Z,1010.1
2023-04-09T00:35:28.742Z,1009.8
2023-04-09T00:36:29.725Z,1010
2023-04-09T00:37:30.745Z,1010.1
2023-04-09T00:38:31.791Z,1010.1
2023-04-09T00:39:32.740Z,1010.1
2023-04-09T00:40:33.740Z,1010.1
2023-04-09T00:41:34.813Z,1010.1
2023-04-09T00:42:35.765Z,1010.2
2023-04-09T00:43:36.694Z,1010.1
2023-04-09T00:44:37.735Z,1010.1
2023-04-09T00:45:38.793Z,1010.1
2023-04-09T00:46:39.881Z,1010.1
2023-04-09T00:47:41.054Z,1010.1
2023-04-09T00:48:41.747Z,1010.1
2023-04-09T00:49:42.840Z,1010.1
2023-04-09T00:50:43.960Z,1010.1
2023-04-09T00:51:44.768Z,1010.1
2023-04-09T00:52:45.801Z,1010.1
2023-04-09T00:53:46.697Z,1010.1
2023-04-09T00:54:47.760Z,1010.1
2023-04-09T00:55:48.732Z,1010.1
2023-04-09T00:56:49.706Z,1010.1
2023-04-09T00:57:50.825Z,1010.1
2023-04-09T00:58:51.956Z,1010.2
2023-04-09T00:59:52.787Z,1010.1
2023-04-09T01:00:53.853Z,1010.1
2023-04-09T01:01:54.781Z,1010.1
2023-04-09T01:02:55.934Z,1010.1
2023-04-09T01:03:56.831Z,1010.1
2023-04-09T01:04:57.665Z,1010.1
2023-04-09T01:05:58.727Z,1010.1
2023-04-09T01:06:59.794Z,1010.2
2023-04-09T01:08:00.789Z,1010.1
2023-04-09T01:09:01.869Z,1010.2
2023-04-09T01:10:02.778Z,1010.2
2023-04-09T01:11:03.866Z,1010.1
2023-04-09T01:12:04.905Z,1010.1
2023-04-09T01:13:05.817Z,1010.2
2023-04-09T01:14:06.761Z,1010.1
2023-04-09T01:15:07.769Z,1010.2
2023-04-09T01:16:08.936Z,1010.1
2023-04-09T01:17:09.720Z,1010.1
2023-04-09T01:18:10.791Z,1010.1
2023-04-09T01:19:11.726Z,1010.1
2023-04-09T01:20:12.744Z,1010.1
2023-04-09T01:21:13.840Z,1010.1
2023-04-09T01:22:14.697Z,1010.1
2023-04-09T01:23:15.755Z,1010.1
2023-04-09T01:24:17.339Z,1010.1
2023-04-09T01:25:18.802Z,1010.1
2023-04-09T01:26:19.787Z,1010.1
2023-04-09T01:27:20.828Z,1010.1
2023-04-09T01:28:21.759Z,1010.2
2023-04-09T01:29:22.773Z,1010.2
2023-04-09T01:30:23.849Z,1010.2
2023-04-09T01:31:24.855Z,1010.2
2023-04-09T01:32:25.843Z,1010.3
2023-04-09T01:33:26.799Z,1010.3
2023-04-09T01:34:27.795Z,1010.3
2023-04-09T01:35:28.715Z,1010.3
2023-04-09T01:36:29.774Z,1010.3
2023-04-09T01:37:30.769Z,1010.4
2023-04-09T01:38:31.802Z,1010.4
2023-04-09T01:39:32.737Z,1010.4
2023-04-09T01:40:33.817Z,1010.4
2023-04-09T01:41:34.763Z,1010.5
2023-04-09T01:42:35.805Z,1010.5
2023-04-09T01:43:36.823Z,1010.5
2023-04-09T01:44:37.770Z,1010.5
2023-04-09T01:45:38.866Z,1010.5
2023-04-09T01:46:39.756Z,1010.5
2023-04-09T01:47:40.788Z,1010.4
2023-04-09T01:48:41.778Z,1010.4
2023-04-09T01:49:42.804Z,1010.4
2023-04-09T01:50:43.838Z,1010.5
2023-04-09T01:51:44.804Z,1010.5
2023-04-09T01:52:45.828Z,1010.5
2023-04-09T01:53:46.776Z,1010.5
2023-04-09T01:54:47.810Z,1010.6
2023-04-09T01:55:48.843Z,1010.6
2023-04-09T01:56:49.826Z,1010.5
2023-04-09T01:57:50.796Z,1010.6
2023-04-09T01:58:51.957Z,1010.6
2023-04-09T01:59:52.757Z,1010.6
2023-04-09T02:00:53.856Z,1010.6
2023-04-09T02:01:54.952Z,1010.6
2023-04-09T02:02:55.898Z,1010.6
2023-04-09T02:03:56.878Z,1010.6
2023-04-09T02:04:57.803Z,1010.5
2023-04-09T02:05:58.924Z,1010.5
2023-04-09T02:06:59.800Z,1010.5
2023-04-09T02:08:00.777Z,1010.5
2023-04-09T02:09:01.818Z,1010.5
2023-04-09T02:10:02.823Z,1010.6
2023-04-09T02:11:03.846Z,1010.7
2023-04-09T02:12:04.839Z,1010.8
2023-04-09T02:13:05.856Z,1010.8
2023-04-09T02:14:06.802Z,1010.7
2023-04-09T02:15:07.818Z,1010.7
2023-04-09T02:16:08.865Z,1010.7
2023-04-09T02:17:09.822Z,1010.7
2023-04-09T02:18:10.831Z,1010.7
2023-04-09T02:19:11.837Z,1010.7
2023-04-09T02:20:12.817Z,1010.7
2023-04-09T02:21:13.897Z,1010.1
2023-04-09T02:22:14.762Z,1010.5
2023-04-09T02:23:15.803Z,1010.6
2023-04-09T02:24:16.808Z,1010.6
2023-04-09T02:25:17.857Z,1010.7
2023-04-09T02:26:18.817Z,1010.7
2023-04-09T02:27:19.771Z,1010.7
2023-04-09T02:28:20.858Z,1010.6
2023-04-09T02:29:21.858Z,1010.6
2023-04-09T02:30:22.784Z,1010.6
2023-04-09T02:31:23.870Z,1010.6
2023-04-09T02:32:24.832Z,1010.6
2023-04-09T02:33:25.797Z,1010.6
2023-04-09T02:34:26.882Z,1010.7
2023-04-09T02:35:27.798Z,1010.7
2023-04-09T02:36:28.817Z,1010.7
2023-04-09T02:37:29.820Z,1010.6
2023-04-09T02:38:30.886Z,1010.7
2023-04-09T02:39:31.826Z,1010.6
2023-04-09T02:40:32.788Z,1010.7
2023-04-09T02:41:33.859Z,1010.7
2023-04-09T02:42:34.817Z,1010.6
2023-04-09T02:43:35.806Z,1010.6
2023-04-09T02:44:36.792Z,1010.6
2023-04-09T02:45:37.827Z,1010.6
2023-04-09T02:46:38.826Z,1010.6
2023-04-09T02:47:39.825Z,1010.6
2023-04-09T02:48:40.840Z,1010.5
2023-04-09T02:49:41.855Z,1010.6
2023-04-09T02:50:42.821Z,1010.5
2023-04-09T02:51:43.819Z,1010.5
2023-04-09T02:52:44.847Z,1010.5
2023-04-09T02:53:45.839Z,1010.5
2023-04-09T02:54:46.842Z,1010.5
2023-04-09T02:55:47.794Z,1010.5
2023-04-09T02:56:48.868Z,1010.5
2023-04-09T02:57:49.842Z,1010.5
2023-04-09T02:58:51.107Z,1010.5
2023-04-09T02:59:51.819Z,1010.5
2023-04-09T03:00:52.847Z,1010.5
2023-04-09T03:01:54.025Z,1010.5
2023-04-09T03:02:55.108Z,1010.5
2023-04-09T03:03:55.912Z,1010.5
2023-04-09T03:04:56.888Z,1010.5
2023-04-09T03:05:57.903Z,1010.4
2023-04-09T03:06:58.824Z,1010.4
2023-04-09T03:07:59.924Z,1010.4
2023-04-09T03:09:00.825Z,1010.4
2023-04-09T03:10:01.898Z,1010.4
2023-04-09T03:11:03.058Z,1010.5
2023-04-09T03:12:03.844Z,1010.4
2023-04-09T03:13:05.001Z,1010.5
2023-04-09T03:14:06.096Z,1010.4
2023-04-09T03:15:06.921Z,1010.4
2023-04-09T03:16:07.900Z,1010.4
2023-04-09T03:17:08.902Z,1010.4
2023-04-09T03:18:09.900Z,1010.4
2023-04-09T03:19:10.923Z,1010.4
2023-04-09T03:20:11.903Z,1010.4
2023-04-09T03:21:14.830Z,1010.4
2023-04-09T03:22:13.901Z,1010.3
2023-04-09T03:23:14.946Z,1010.3
2023-04-09T03:24:15.901Z,1010.4
2023-04-09T03:25:16.830Z,1010.4
2023-04-09T03:26:18.088Z,1010.3
2023-04-09T03:27:18.922Z,1010.4
2023-04-09T03:28:19.895Z,1010.3
2023-04-09T03:29:20.930Z,1010.3
2023-04-09T03:30:21.903Z,1010.3
2023-04-09T03:31:22.924Z,1010.3
2023-04-09T03:32:23.924Z,1010.3
2023-04-09T03:33:24.960Z,1010.3
2023-04-09T03:34:25.929Z,1010.3
2023-04-09T03:35:26.943Z,1010.3
2023-04-09T03:36:27.914Z,1010.3
2023-04-09T03:37:28.901Z,1010.3
2023-04-09T03:38:29.836Z,1010.3
2023-04-09T03:39:30.950Z,1010.3
2023-04-09T03:40:31.890Z,1010.4
2023-04-09T03:41:32.930Z,1010.3
2023-04-09T03:42:33.963Z,1010.3
2023-04-09T03:43:35.891Z,1010
2023-04-09T03:44:36.951Z,1010.2
2023-04-09T03:45:37.927Z,1010.3
2023-04-09T03:46:38.939Z,1010.3
2023-04-09T03:47:39.946Z,1010.3
2023-04-09T03:48:40.922Z,1010.3
2023-04-09T03:49:41.906Z,1010.4
2023-04-09T03:50:42.873Z,1010.4
2023-04-09T03:51:44.046Z,1010.3
2023-04-09T03:52:45.041Z,1010.3
2023-04-09T03:53:46.923Z,1010.3
2023-04-09T03:54:47.902Z,1010.3
2023-04-09T03:55:48.920Z,1010.4
2023-04-09T03:56:50.941Z,1010.4
2023-04-09T03:57:51.955Z,1010.4
2023-04-09T03:58:53.033Z,1010.4
2023-04-09T03:59:53.980Z,1010.4
2023-04-09T04:00:54.881Z,1010.5
2023-04-09T04:01:56.019Z,1010.4
2023-04-09T04:02:56.944Z,1010.4
2023-04-09T04:03:58.040Z,1010.4
2023-04-09T04:04:58.926Z,1010.4
2023-04-09T04:05:59.878Z,1010.5
2023-04-09T04:07:00.878Z,1010.4
2023-04-09T04:08:01.939Z,1010.4
2023-04-09T04:09:02.923Z,1009.8
2023-04-09T04:10:03.939Z,1010.2
2023-04-09T04:11:04.999Z,1010.3
2023-04-09T04:12:05.910Z,1010.4
2023-04-09T04:13:06.952Z,1010.5
2023-04-09T04:14:07.916Z,1010.5
2023-04-09T04:15:08.886Z,1010.4
2023-04-09T04:16:09.944Z,1010.5
2023-04-09T04:17:10.959Z,1010.5
2023-04-09T04:18:11.941Z,1010.5
2023-04-09T04:19:12.876Z,1010.5
2023-04-09T04:20:14.407Z,1010.5
2023-04-09T04:21:15.895Z,1010.5
2023-04-09T04:22:16.890Z,1010.5
2023-04-09T04:23:18.397Z,1010.5
2023-04-09T04:24:19.988Z,1010.5
2023-04-09T04:25:20.882Z,1010.6
2023-04-09T04:26:21.878Z,1010.5
2023-04-09T04:27:22.921Z,1010.5
2023-04-09T04:28:23.897Z,1010.5
2023-04-09T04:29:24.936Z,1010.5
2023-04-09T04:30:41.081Z,1010.5
2023-04-09T04:31:43.006Z,1010.5
2023-04-09T04:32:43.948Z,1010.5
2023-04-09T04:33:45.016Z,1010.6
2023-04-09T04:34:45.967Z,1010.5
2023-04-09T04:35:47.498Z,1010.6
2023-04-09T04:36:49.117Z,1010.6
2023-04-09T04:37:50.906Z,1010.6
2023-04-09T04:38:52.128Z,1010.6
2023-04-09T04:39:53.005Z,1010.7
2023-04-09T04:40:54.946Z,1010.6
2023-04-09T04:41:55.938Z,1010.6
2023-04-09T04:42:57.037Z,1010.5
2023-04-09T04:43:57.917Z,1010.6
2023-04-09T04:44:58.921Z,1010.6
2023-04-09T04:45:59.978Z,1010.6
2023-04-09T04:47:00.920Z,1010.6
2023-04-09T04:48:02.006Z,1010.7
2023-04-09T04:49:02.947Z,1010.6
2023-04-09T04:50:03.972Z,1010.7
2023-04-09T04:51:05.003Z,1010
2023-04-09T04:52:05.952Z,1010.5
2023-04-09T04:53:06.927Z,1010.5
2023-04-09T04:54:07.955Z,1010.6
2023-04-09T04:55:08.937Z,1010.6
2023-04-09T04:56:09.926Z,1010.6
2023-04-09T04:57:10.937Z,1010.6
2023-04-09T04:58:11.917Z,1010.6
2023-04-09T04:59:12.977Z,1010.7
2023-04-09T05:00:13.917Z,1010.7
2023-04-09T05:01:15.037Z,1010.7
2023-04-09T05:02:16.028Z,1010.7
2023-04-09T05:03:17.030Z,1010.7
2023-04-09T05:04:18.478Z,1010.7
2023-04-09T05:05:20.318Z,1010.7
2023-04-09T05:06:21.958Z,1010.7
2023-04-09T05:07:22.963Z,1010.7
2023-04-09T05:08:23.897Z,1010.7
2023-04-09T05:09:25.003Z,1010.7
2023-04-09T05:10:25.937Z,1010.7
2023-04-09T05:11:26.906Z,1010.7
2023-04-09T05:12:27.951Z,1010.7
2023-04-09T05:13:29.022Z,1010.7
2023-04-09T05:14:29.904Z,1010.7
2023-04-09T05:15:30.967Z,1010.8
2023-04-09T05:16:33.220Z,1010.8
2023-04-09T05:17:33.963Z,1010.7
2023-04-09T05:18:35.376Z,1010.7
2023-04-09T05:19:36.976Z,1010.7
2023-04-09T05:20:37.955Z,1010.7
2023-04-09T05:21:39.046Z,1010.7
2023-04-09T05:22:39.877Z,1010.7
2023-04-09T05:23:40.980Z,1010.8
2023-04-09T05:24:41.958Z,1010.8
2023-04-09T05:25:43.051Z,1010.8
2023-04-09T05:26:43.927Z,1010.8
2023-04-09T05:27:45.449Z,1010.8
2023-04-09T05:28:46.852Z,1010.8
2023-04-09T05:29:47.909Z,1010.8
2023-04-09T05:30:48.981Z,1010.7
2023-04-09T05:31:49.870Z,1010.8
2023-04-09T05:32:50.947Z,1010.8
2023-04-09T05:33:51.885Z,1010.7
2023-04-09T05:34:52.917Z,1010.9
2023-04-09T05:35:53.932Z,1010.9
2023-04-09T05:36:54.899Z,1010.9
2023-04-09T05:37:55.898Z,1010.9
2023-04-09T05:38:56.937Z,1010.3
2023-04-09T05:39:57.856Z,1010.7
2023-04-09T05:40:58.926Z,1010.5
2023-04-09T05:41:59.869Z,1010.8
2023-04-09T05:43:00.926Z,1010.9
2023-04-09T05:44:02.401Z,1010.9
2023-04-09T05:45:04.039Z,1010.8
2023-04-09T05:46:04.980Z,1010.8
2023-04-09T05:47:06.026Z,1010.9
2023-04-09T05:48:06.856Z,1010.9
2023-04-09T05:49:07.905Z,1010.9
2023-04-09T05:50:08.860Z,1011
2023-04-09T05:51:09.905Z,1011
2023-04-09T05:52:10.908Z,1011
2023-04-09T05:53:11.846Z,1011
2023-04-09T05:54:12.964Z,1011
2023-04-09T05:55:13.981Z,1011
2023-04-09T05:56:14.841Z,1011
2023-04-09T05:57:15.922Z,1010.9
2023-04-09T05:58:16.861Z,1010.9
2023-04-09T05:59:17.906Z,1010.9
2023-04-09T06:00:19.348Z,1010.9
2023-04-09T06:01:20.906Z,1010.9
2023-04-09T06:02:21.950Z,1010.9
2023-04-09T06:03:23.040Z,1010.9
2023-04-09T06:04:24.033Z,1010.9
2023-04-09T06:05:24.983Z,1010.9
2023-04-09T06:06:26.003Z,1010.9
2023-04-09T06:07:26.879Z,1010.9
2023-04-09T06:08:27.883Z,1010.9
2023-04-09T06:09:28.851Z,1010.8
2023-04-09T06:10:29.977Z,1010.9
2023-04-09T06:11:30.942Z,1010.9
2023-04-09T06:12:31.896Z,1010.9
2023-04-09T06:13:32.962Z,1010.9
2023-04-09T06:14:33.950Z,1010.9
2023-04-09T06:15:35.559Z,1010.9
2023-04-09T06:16:37.102Z,1010.9
2023-04-09T06:17:38.007Z,1010.9
2023-04-09T06:18:38.922Z,1010.9
2023-04-09T06:19:39.920Z,1010.9
2023-04-09T06:20:40.909Z,1010.9
2023-04-09T06:21:41.938Z,1011
2023-04-09T06:22:42.981Z,1011
2023-04-09T06:23:43.912Z,1011
2023-04-09T06:24:45.031Z,1011
2023-04-09T06:25:45.900Z,1011
2023-04-09T06:26:46.910Z,1010.9
2023-04-09T06:27:47.931Z,1010.9
2023-04-09T06:28:48.892Z,1010.8
2023-04-09T06:29:49.897Z,1010.8
2023-04-09T06:30:50.997Z,1010.8
2023-04-09T06:31:51.990Z,1010.8
2023-04-09T06:32:54.726Z,1010.8
2023-04-09T06:33:54.132Z,1010.9
2023-04-09T06:34:54.939Z,1010.9
2023-04-09T06:35:55.931Z,1010.9
2023-04-09T06:36:56.994Z,1010.9
2023-04-09T06:37:57.926Z,1010.9
2023-04-09T06:38:58.904Z,1010.9
2023-04-09T06:40:01.215Z,1010.9
2023-04-09T06:41:00.891Z,1010.9
2023-04-09T06:42:01.922Z,1011
2023-04-09T06:43:02.932Z,1011
2023-04-09T06:44:03.919Z,1011
2023-04-09T06:45:05.106Z,1010.7
2023-04-09T06:46:06.147Z,1010.9
2023-04-09T06:47:07.010Z,1010.9
2023-04-09T06:48:07.912Z,1011
2023-04-09T06:49:08.889Z,1011
2023-04-09T06:50:10.037Z,1010.9
2023-04-09T06:51:10.967Z,1010.9
2023-04-09T06:52:11.943Z,1010.9
2023-04-09T06:53:12.969Z,1011
2023-04-09T06:54:13.971Z,1011
2023-04-09T06:55:14.970Z,1011
2023-04-09T06:56:15.960Z,1011.1
2023-04-09T06:57:17.026Z,1011.1
2023-04-09T06:58:17.888Z,1011.1
2023-04-09T06:59:19.462Z,1011.1
2023-04-09T07:00:20.978Z,1011.1
2023-04-09T07:01:21.973Z,1011.1
2023-04-09T07:02:22.980Z,1011
2023-04-09T07:03:24.131Z,1011
2023-04-09T07:04:25.097Z,1011.1
2023-04-09T07:05:25.960Z,1011.2
2023-04-09T07:06:26.925Z,1011.2
2023-04-09T07:07:27.971Z,1011.1
2023-04-09T07:08:28.938Z,1011.1
2023-04-09T07:09:29.919Z,1011.1
2023-04-09T07:10:30.918Z,1011.1
2023-04-09T07:11:31.938Z,1011.1
2023-04-09T07:12:32.989Z,1011.1
2023-04-09T07:13:33.934Z,1011.1
2023-04-09T07:14:34.956Z,1011.1
2023-04-09T07:15:35.921Z,1011.1
2023-04-09T07:16:36.969Z,1011.1
2023-04-09T07:17:38.021Z,1011.1
2023-04-09T07:18:39.296Z,1011.1
2023-04-09T07:19:40.027Z,1011.1
2023-04-09T07:20:41.001Z,1011.1
2023-04-09T07:21:41.921Z,1011.2
2023-04-09T07:22:42.962Z,1011.1
2023-04-09T07:23:43.960Z,1011.2
2023-04-09T07:24:45.040Z,1011.2
2023-04-09T07:25:45.943Z,1011.1
2023-04-09T07:26:46.964Z,1011.2
2023-04-09T07:27:47.906Z,1011.2
2023-04-09T07:28:48.952Z,1011.2
2023-04-09T07:29:49.941Z,1011.1
2023-04-09T07:30:50.949Z,1011.2
2023-04-09T07:31:51.984Z,1011.2
2023-04-09T07:32:52.981Z,1011.2
2023-04-09T07:33:54.160Z,1011.2
2023-04-09T07:34:54.967Z,1011.2
2023-04-09T07:35:56.135Z,1011.2
2023-04-09T07:36:56.936Z,1011.2
2023-04-09T07:37:57.942Z,1011.2
2023-04-09T07:38:58.939Z,1011.2
2023-04-09T07:40:00.082Z,1011.2
2023-04-09T07:41:00.955Z,1011.2
2023-04-09T07:42:01.998Z,1011.2
2023-04-09T07:43:02.921Z,1010.8
2023-04-09T07:44:03.971Z,1011.1
2023-04-09T07:45:05.162Z,1011.2
2023-04-09T07:46:05.921Z,1011.2
2023-04-09T07:47:06.992Z,1011.2
2023-04-09T07:48:08.007Z,1011.2
2023-04-09T07:49:08.972Z,1011.2
2023-04-09T07:50:10.027Z,1011.2
2023-04-09T07:51:10.944Z,1011.1
2023-04-09T07:52:12.054Z,1011.2
2023-04-09T07:53:13.005Z,1011.2
2023-04-09T07:54:13.984Z,1011.2
2023-04-09T07:55:16.286Z,1011.2
2023-04-09T07:56:15.914Z,1011.1
2023-04-09T07:57:17.023Z,1011.2
2023-04-09T07:58:18.474Z,1011.1
2023-04-09T07:59:19.965Z,1011.1
2023-04-09T08:00:20.998Z,1011.2
2023-04-09T08:01:22.017Z,1011.2
2023-04-09T08:02:23.241Z,1011.3
2023-04-09T08:03:24.074Z,1011.3
2023-04-09T08:04:25.139Z,1011.2
2023-04-09T08:05:25.975Z,1011.2
2023-04-09T08:06:27.578Z,1011.2
2023-04-09T08:07:29.388Z,1011.2
2023-04-09T08:08:31.260Z,1011.1
2023-04-09T08:09:31.959Z,1011.1
2023-04-09T08:10:32.961Z,1011.1
2023-04-09T08:11:33.948Z,1011.2
2023-04-09T08:12:34.973Z,1011.2
2023-04-09T08:13:35.958Z,1011.2
2023-04-09T08:14:36.992Z,1011.2
2023-04-09T08:15:37.947Z,1011.3
2023-04-09T08:16:39.024Z,1011.2
2023-04-09T08:17:40.118Z,1011.2
2023-04-09T08:18:41.019Z,1011.2
2023-04-09T08:19:42.279Z,1011.2
2023-04-09T08:20:43.010Z,1011.1
2023-04-09T08:21:44.029Z,1011.1
2023-04-09T08:22:45.096Z,1011.1
2023-04-09T08:23:46.044Z,1011.1
2023-04-09T08:24:46.968Z,1011
2023-04-09T08:25:47.973Z,1011.1
2023-04-09T08:26:49.016Z,1011.1
2023-04-09T08:27:50.397Z,1011.1
2023-04-09T08:28:52.262Z,1011.2
2023-04-09T08:29:53.066Z,1011.2
2023-04-09T08:30:54.021Z,1011.1
2023-04-09T08:31:55.006Z,1011.3
2023-04-09T08:32:56.032Z,1011.3
2023-04-09T08:33:57.049Z,1011.3
2023-04-09T08:34:58.159Z,1011.3
2023-04-09T08:35:59.669Z,1011.2
2023-04-09T08:37:00.039Z,1011.2
2023-04-09T08:38:01.319Z,1011.2
2023-04-09T08:39:01.967Z,1011.5
2023-04-09T08:40:03.037Z,1011.3
2023-04-09T08:41:03.959Z,1011.3
2023-04-09T08:42:05.070Z,1011.2
2023-04-09T08:43:06.061Z,1011.2
2023-04-09T08:44:07.831Z,1011.3
2023-04-09T08:45:09.420Z,1011.3
2023-04-09T08:46:11.546Z,1011.3
2023-04-09T08:47:13.020Z,1011.3
2023-04-09T08:48:14.083Z,1011.3
2023-04-09T08:49:15.091Z,1011.2
2023-04-09T08:50:16.039Z,1011.2
2023-04-09T08:51:17.007Z,1011.2
2023-04-09T08:52:18.027Z,1011.2
2023-04-09T08:53:19.495Z,1011.2
2023-04-09T08:54:21.260Z,1011.2
2023-04-09T08:55:21.999Z,1011.2
2023-04-09T08:56:22.959Z,1011.2
2023-04-09T08:57:23.983Z,1011.3
2023-04-09T08:58:25.049Z,1011.2
2023-04-09T08:59:26.039Z,1011.2
2023-04-09T09:00:27.009Z,1011.2
2023-04-09T09:01:28.061Z,1011.3
2023-04-09T09:02:29.113Z,1010.7
2023-04-09T09:03:30.042Z,1011.1
2023-04-09T09:04:31.100Z,1011.3
2023-04-09T09:05:32.064Z,1011.2
2023-04-09T09:06:33.294Z,1011.2
2023-04-09T09:07:33.944Z,1011.2
2023-04-09T09:08:34.985Z,1011.2
2023-04-09T09:09:36.056Z,1011.2
2023-04-09T09:10:37.025Z,1011.2
2023-04-09T09:11:37.956Z,1011.2
2023-04-09T09:12:39.034Z,1011.2
2023-04-09T09:13:39.996Z,1011.2
2023-04-09T09:14:41.058Z,1011.2
2023-04-09T09:15:42.055Z,1011.3
2023-04-09T09:16:43.467Z,1011.2
2023-04-09T09:17:44.161Z,1011.2
2023-04-09T09:18:45.282Z,1011.2
2023-04-09T09:19:46.058Z,1011.2
2023-04-09T09:20:47.000Z,1011.2
2023-04-09T09:21:48.098Z,1011.2
2023-04-09T09:22:49.137Z,1011.3
2023-04-09T09:23:50.006Z,1011.3
2023-04-09T09:24:51.035Z,1011.2
2023-04-09T09:25:52.044Z,1011.2
2023-04-09T09:26:53.797Z,1011.3
2023-04-09T09:27:54.998Z,1011.3
2023-04-09T09:28:56.076Z,1011.3
2023-04-09T09:29:57.032Z,1011.3
2023-04-09T09:30:57.968Z,1011.3
2023-04-09T09:31:59.034Z,1011.3
2023-04-09T09:33:00.017Z,1010.7
2023-04-09T09:34:01.038Z,1011.1
2023-04-09T09:35:02.049Z,1011.2
2023-04-09T09:36:03.112Z,1011
2023-04-09T09:37:03.990Z,1011.3
2023-04-09T09:38:05.060Z,1011.3
2023-04-09T09:39:06.039Z,1011.2
2023-04-09T09:40:07.117Z,1011.3
2023-04-09T09:41:08.039Z,1011.3
2023-04-09T09:42:09.023Z,1011.4
2023-04-09T09:43:10.047Z,1011.3
2023-04-09T09:44:11.053Z,1011.4
2023-04-09T09:45:11.972Z,1011.3
2023-04-09T09:46:13.040Z,1011.3
2023-04-09T09:47:14.021Z,1011.2
2023-04-09T09:48:15.025Z,1011.3
2023-04-09T09:49:16.061Z,1011.3
2023-04-09T09:50:17.347Z,1011.2
2023-04-09T09:51:18.044Z,1011.2
2023-04-09T09:52:19.279Z,1011.2
2023-04-09T09:53:21.107Z,1011.2
2023-04-09T09:54:22.364Z,1010.9
2023-04-09T09:55:24.040Z,1011.1
2023-04-09T09:56:25.445Z,1011.1
2023-04-09T09:57:27.051Z,1011.2
2023-04-09T09:58:28.612Z,1011.2
2023-04-09T09:59:30.060Z,1011.2
2023-04-09T10:00:31.074Z,1011.2
2023-04-09T10:01:32.052Z,1011.2
2023-04-09T10:02:33.155Z,1011.2
2023-04-09T10:03:34.132Z,1011.2
2023-04-09T10:04:35.753Z,1011.2
2023-04-09T10:05:37.002Z,1011.1
2023-04-09T10:06:38.105Z,1011.1
2023-04-09T10:07:39.008Z,1011.2
2023-04-09T10:08:40.128Z,1011.1
2023-04-09T10:09:41.066Z,1011.1
2023-04-09T10:10:42.045Z,1011.1
2023-04-09T10:11:43.023Z,1011.1
2023-04-09T10:12:44.005Z,1011.1
2023-04-09T10:13:45.119Z,1011.1
2023-04-09T10:14:46.160Z,1011.1
2023-04-09T10:15:47.055Z,1011.1
2023-04-09T10:16:48.096Z,1011.1
2023-04-09T10:17:49.080Z,1011.1
2023-04-09T10:18:50.213Z,1011.1
2023-04-09T10:19:51.020Z,1011.1
2023-04-09T10:20:52.157Z,1011.1
2023-04-09T10:21:53.389Z,1011.1
2023-04-09T10:22:55.123Z,1011.1
2023-04-09T10:23:56.418Z,1011.1
2023-04-09T10:24:57.086Z,1011.1
2023-04-09T10:25:58.058Z,1010.9
2023-04-09T10:26:59.028Z,1011.2
2023-04-09T10:28:00.179Z,1011.3
2023-04-09T10:29:01.046Z,1011.2
2023-04-09T10:30:02.410Z,1011.3
2023-04-09T10:31:03.167Z,1011.2
2023-04-09T10:32:04.466Z,1011.2
2023-04-09T10:33:06.753Z,1011.2
2023-04-09T10:34:10.296Z,1011.2
2023-04-09T10:35:09.054Z,1011.2
2023-04-09T10:36:10.176Z,1011.2
2023-04-09T10:37:11.194Z,1011.2
2023-04-09T10:38:12.031Z,1011.2
2023-04-09T10:39:13.058Z,1011.1
2023-04-09T10:40:14.122Z,1011.2
2023-04-09T10:41:15.065Z,1011.1
2023-04-09T10:42:16.103Z,1011.1
2023-04-09T10:43:17.025Z,1011.1
2023-04-09T10:44:18.040Z,1011.2
2023-04-09T10:45:20.104Z,1011.2
2023-04-09T10:46:20.124Z,1011.2
2023-04-09T10:47:21.041Z,1011.2
2023-04-09T10:48:22.113Z,1011.1
2023-04-09T10:49:23.025Z,1011.2
2023-04-09T10:50:24.371Z,1011.2
2023-04-09T10:51:25.063Z,1011.2
2023-04-09T10:52:26.074Z,1011.2
2023-04-09T10:53:27.086Z,1011.2
2023-04-09T10:54:28.019Z,1011.1
2023-04-09T10:55:29.040Z,1011.2
2023-04-09T10:56:30.081Z,1011.2
2023-04-09T10:57:31.065Z,1011.2
2023-04-09T10:58:32.082Z,1011.1
2023-04-09T10:59:33.082Z,1011.2
2023-04-09T11:00:34.046Z,1011.2
2023-04-09T11:01:35.080Z,1011.1
2023-04-09T11:02:36.155Z,1011.1
2023-04-09T11:03:37.091Z,1011.1
2023-04-09T11:04:38.057Z,1011.1
2023-04-09T11:05:39.066Z,1011.1
2023-04-09T11:06:40.100Z,1011.1
2023-04-09T11:07:41.074Z,1011.1
2023-04-09T11:08:42.063Z,1011.1
2023-04-09T11:09:43.121Z,1011.1
2023-04-09T11:10:44.141Z,1011.1
2023-04-09T11:11:45.159Z,1011.1
2023-04-09T11:12:46.085Z,1011
2023-04-09T11:13:47.095Z,1011.1
2023-04-09T11:14:48.059Z,1011.1
2023-04-09T11:15:49.112Z,1011.1
2023-04-09T11:16:50.128Z,1011.1
2023-04-09T11:17:51.144Z,1011.1
2023-04-09T11:18:52.414Z,1011.1
2023-04-09T11:19:53.124Z,1011
2023-04-09T11:20:54.078Z,1011.1
2023-04-09T11:21:55.735Z,1011.1
2023-04-09T11:22:57.146Z,1011.1
2023-04-09T11:23:58.072Z,1011.1
2023-04-09T11:24:59.189Z,1011.1
2023-04-09T11:26:00.063Z,1011.1
2023-04-09T11:27:01.113Z,1011.1
2023-04-09T11:28:02.105Z,1011
2023-04-09T11:29:03.095Z,1011
2023-04-09T11:30:04.038Z,1011
2023-04-09T11:31:05.172Z,1010.9
2023-04-09T11:32:06.125Z,1011
2023-04-09T11:33:07.110Z,1011
2023-04-09T11:34:08.087Z,1011.1
2023-04-09T11:35:09.056Z,1011
2023-04-09T11:36:10.210Z,1010.9
2023-04-09T11:37:11.082Z,1010.9
2023-04-09T11:38:12.148Z,1010.9
2023-04-09T11:39:13.043Z,1010.9
2023-04-09T11:40:14.058Z,1011
2023-04-09T11:41:15.155Z,1010.9
2023-04-09T11:42:16.054Z,1010.9
2023-04-09T11:43:17.182Z,1010.9
2023-04-09T11:44:18.060Z,1010.9
2023-04-09T11:45:19.054Z,1010.9
2023-04-09T11:46:20.201Z,1010.9
2023-04-09T11:47:21.151Z,1010.9
2023-04-09T11:48:22.095Z,1010.9
2023-04-09T11:49:23.075Z,1010.9
2023-04-09T11:50:24.080Z,1010.9
2023-04-09T11:51:25.112Z,1010.9
2023-04-09T11:52:26.074Z,1010.9
2023-04-09T11:53:27.046Z,1010.9
2023-04-09T11:54:28.164Z,1010.9
2023-04-09T11:55:29.057Z,1011
2023-04-09T11:56:30.145Z,1011
2023-04-09T11:57:31.138Z,1011
2023-04-09T11:58:32.140Z,1011.1
2023-04-09T11:59:33.367Z,1011.1
2023-04-09T12:00:34.079Z,1011.1
2023-04-09T12:01:35.088Z,1011.1
2023-04-09T12:02:36.274Z,1011
2023-04-09T12:03:37.133Z,1011.1
2023-04-09T12:04:38.086Z,1011.1
2023-04-09T12:05:41.195Z,1011
2023-04-09T12:06:40.145Z,1011.1
2023-04-09T12:07:44.208Z,1011.1
2023-04-09T12:08:42.083Z,1011.1
2023-04-09T12:09:43.126Z,1011.2
2023-04-09T12:10:44.079Z,1011.2
2023-04-09T12:11:45.168Z,1011.2
2023-04-09T12:12:46.261Z,1011.2
2023-04-09T12:13:47.060Z,1011.1
2023-04-09T12:14:48.150Z,1011.1
2023-04-09T12:15:49.162Z,1011
2023-04-09T12:16:50.590Z,1011.1
2023-04-09T12:17:52.219Z,1011.1
2023-04-09T12:18:53.482Z,1011.1
2023-04-09T12:19:54.144Z,1011
2023-04-09T12:20:55.115Z,1011.1
2023-04-09T12:21:56.152Z,1011.1
2023-04-09T12:22:57.271Z,1011.2
2023-04-09T12:23:58.139Z,1011.2
2023-04-09T12:24:59.118Z,1011.2
2023-04-09T12:26:00.147Z,1011.1
2023-04-09T12:27:01.139Z,1011.1
2023-04-09T12:28:02.191Z,1011.1
2023-04-09T12:29:03.139Z,1011.1
2023-04-09T12:30:04.166Z,1011.2
2023-04-09T12:31:05.185Z,1010.9
2023-04-09T12:32:06.204Z,1011.1
2023-04-09T12:33:08.929Z,1011.1
2023-04-09T12:34:08.120Z,1011.2
2023-04-09T12:35:09.148Z,1011.2
2023-04-09T12:36:10.189Z,1011.1
2023-04-09T12:37:11.145Z,1011.2
2023-04-09T12:38:12.582Z,1011.1
2023-04-09T12:39:14.223Z,1011.1
2023-04-09T12:40:15.082Z,1011
2023-04-09T12:41:16.246Z,1011
2023-04-09T12:42:17.108Z,1011
2023-04-09T12:43:18.135Z,1011.1
2023-04-09T12:44:19.142Z,1011.1
2023-04-09T12:45:20.098Z,1011.1
2023-04-09T12:46:21.218Z,1011